Knights Landing, California
Current Conditions -  °F | °C
As of 12:53 PM on Monday 24 Nov 2014 (Local Time) from KSMF Reporting Station
Few Clouds Few Clouds  
Wind Chill: 59°   Ceiling: Unl
Heat Index: 59°   Visibility: 10mi
Dew Point: 41°   Wind: 0mph
Humidity: 51%   Direction: NA
Pressure: 30.37"   Gusts: NA
Location:  38.8°N, 121.72°W
Report Text: KSMF 242053Z 00000KT 10SM FEW240 15/05 A3037 RMK AO2 SLP282 T01500050 58014
Loading
Personal Weather Stations






























Interactive Weather Map New forecast layout! Learn more

10-Day Weather Forecast

Advertisements
Track Severe Weather on mobile